Harristown, Pennsylvania
Current Conditions -  °F | °C
As of 10:55 AM on Monday 24 Nov 2014 (Local Time) from KMQS Reporting Station
Overcast Overcast  
Wind Chill: 66°   Ceiling: 1800
Heat Index: 66°   Visibility: 10mi
Dew Point: 59°   Wind: 12mph
Humidity: 78%   Direction: 200°SSW
Pressure: 29.67"   Gusts: 20mph
Location:  39.9757°N, 76.0913°W
Report Text: KMQS 241555Z AUTO 20010G17KT 170V240 10SM OVC018 19/15 A2967 RMK AO2
Loading
Personal Weather Stations






























Interactive Weather Map New forecast layout! Learn more

10-Day Weather Forecast

Advertisements
Track Severe Weather on mobile